<?xml version='1.0' encoding='UTF-8'?><gpx version="1.1" creator="JPX - https://github.com/jenetics/jpx" xmlns="http://www.topografix.com/GPX/1/1"><trk><trkseg><trkpt lat="43.353633383387546" lon="10.83853029216973"><ele>162.0</ele><time>2026-04-18T13:48:30Z</time></trkpt><trkpt lat="43.3536195415277" lon="10.838630978539477"><ele>162.0</ele><time>2026-04-18T13:48:38Z</time></trkpt><trkpt lat="43.3536027247328" lon="10.838725880576487"><ele>162.0</ele><time>2026-04-18T13:48:46Z</time></trkpt><trkpt lat="43.353590806118994" lon="10.838831576539198"><ele>162.0</ele><time>2026-04-18T13:48:59Z</time></trkpt><trkpt lat="43.35356390564429" lon="10.838924355559536"><ele>162.0</ele><time>2026-04-18T13:49:05Z</time></trkpt><trkpt lat="43.353569868741815" lon="10.839011152237356"><ele>162.0</ele><time>2026-04-18T13:49:11Z</time></trkpt><trkpt lat="43.353594985589766" lon="10.83909816192825"><ele>162.0</ele><time>2026-04-18T13:49:18Z</time></trkpt><trkpt lat="43.353630074024736" lon="10.839176213821814"><ele>162.0</ele><time>2026-04-18T13:49:24Z</time></trkpt><trkpt lat="43.35365568294622" lon="10.839259722976516"><ele>162.0</ele><time>2026-04-18T13:49:32.001Z</time></trkpt><trkpt lat="43.35365073387661" lon="10.839346423527163"><ele>162.0</ele><time>2026-04-18T13:49:43.001Z</time></trkpt><trkpt lat="43.353615743825955" lon="10.839420567145694"><ele>162.0</ele><time>2026-04-18T13:49:49.001Z</time></trkpt><trkpt lat="43.353571629885494" lon="10.839493040862386"><ele>162.0</ele><time>2026-04-18T13:49:54.001Z</time></trkpt><trkpt lat="43.35350668039204" lon="10.839538492513949"><ele>162.0</ele><time>2026-04-18T13:50:01.001Z</time></trkpt><trkpt lat="43.353444263737" lon="10.839550795488465"><ele>162.0</ele><time>2026-04-18T13:50:13.001Z</time></trkpt><trkpt lat="43.353372818995794" lon="10.83959320298582"><ele>162.0</ele><time>2026-04-18T13:50:21.999Z</time></trkpt><trkpt lat="43.353310557291586" lon="10.839578249359656"><ele>162.0</ele><time>2026-04-18T13:50:30Z</time></trkpt><trkpt lat="43.35327819309188" lon="10.83949468618549"><ele>162.0</ele><time>2026-04-18T13:50:34Z</time></trkpt><trkpt lat="43.3532669282253" lon="10.839395508516557"><ele>162.0</ele><time>2026-04-18T13:50:44Z</time></trkpt><trkpt lat="43.35327936349346" lon="10.839303790285658"><ele>162.0</ele><time>2026-04-18T13:50:58Z</time></trkpt><trkpt lat="43.35331830611498" lon="10.839224347829258"><ele>162.0</ele><time>2026-04-18T13:51:05Z</time></trkpt><trkpt lat="43.353370866162514" lon="10.83915878124682"><ele>162.0</ele><time>2026-04-18T13:51:12Z</time></trkpt><trkpt lat="43.35341719200466" lon="10.839097859144932"><ele>162.0</ele><time>2026-04-18T13:51:18Z</time></trkpt><trkpt lat="43.353460097131084" lon="10.839024417706266"><ele>162.0</ele><time>2026-04-18T13:51:27Z</time></trkpt><trkpt lat="43.353414880633544" lon="10.838963797087702"><ele>162.0</ele><time>2026-04-18T13:51:36Z</time></trkpt><trkpt lat="43.35335257614247" lon="10.83898828752704"><ele>162.0</ele><time>2026-04-18T13:51:45Z</time></trkpt><trkpt lat="43.35327810810828" lon="10.839011898286472"><ele>162.0</ele><time>2026-04-18T13:52:02.001Z</time></trkpt><trkpt lat="43.353200155561154" lon="10.839041452081217"><ele>162.0</ele><time>2026-04-18T13:52:14.001Z</time></trkpt><trkpt lat="43.353142463113" lon="10.839085000666214"><ele>162.0</ele><time>2026-04-18T13:52:20.001Z</time></trkpt><trkpt lat="43.35312055524784" lon="10.839170550256803"><ele>162.0</ele><time>2026-04-18T13:52:28Z</time></trkpt><trkpt lat="43.35311394078369" lon="10.839270702612566"><ele>162.0</ele><time>2026-04-18T13:52:35Z</time></trkpt><trkpt lat="43.353100552340265" lon="10.839362562746638"><ele>162.0</ele><time>2026-04-18T13:52:43Z</time></trkpt><trkpt lat="43.35309302050961" lon="10.839460597914384"><ele>162.0</ele><time>2026-04-18T13:52:50Z</time></trkpt><trkpt lat="43.35307683422835" lon="10.83954712990317"><ele>162.0</ele><time>2026-04-18T13:52:57Z</time></trkpt><trkpt lat="43.35312307321766" lon="10.839611676105093"><ele>162.0</ele><time>2026-04-18T13:53:22Z</time></trkpt><trkpt lat="43.35318424435425" lon="10.839578486669112"><ele>162.0</ele><time>2026-04-18T13:53:29Z</time></trkpt><trkpt lat="43.35322622702963" lon="10.839643003245527"><ele>161.71428571428572</ele><time>2026-04-18T13:53:38.001Z</time></trkpt><trkpt lat="43.35316836648401" lon="10.839688773794316"><ele>161.42857142857142</ele><time>2026-04-18T13:53:47.001Z</time></trkpt><trkpt lat="43.3531049336232" lon="10.839730671762911"><ele>161.14285714285714</ele><time>2026-04-18T13:53:52.001Z</time></trkpt><trkpt lat="43.353074081312364" lon="10.83983209556767"><ele>160.85714285714286</ele><time>2026-04-18T13:53:57.001Z</time></trkpt><trkpt lat="43.35306153020309" lon="10.839928339443466"><ele>160.57142857142858</ele><time>2026-04-18T13:54:04.001Z</time></trkpt><trkpt lat="43.35310022824569" lon="10.840007808349219"><ele>160.28571428571428</ele><time>2026-04-18T13:54:13.001Z</time></trkpt><trkpt lat="43.353163591348874" lon="10.839990143956587"><ele>160.0</ele><time>2026-04-18T13:54:33.001Z</time></trkpt><trkpt lat="43.35321294241071" lon="10.839926054303133"><ele>160.0</ele><time>2026-04-18T13:54:41Z</time></trkpt><trkpt lat="43.35326213799084" lon="10.839847203816774"><ele>160.0</ele><time>2026-04-18T13:54:56Z</time></trkpt><trkpt lat="43.35329562981646" lon="10.839766675035149"><ele>160.0</ele><time>2026-04-18T13:55:27Z</time></trkpt><trkpt lat="43.35333589159415" lon="10.839688220241134"><ele>160.0</ele><time>2026-04-18T13:55:33Z</time></trkpt><trkpt lat="43.353393704722485" lon="10.839653548783383"><ele>160.0</ele><time>2026-04-18T13:55:41.001Z</time></trkpt><trkpt lat="43.35347096743243" lon="10.839643193221548"><ele>160.0</ele><time>2026-04-18T13:55:56.001Z</time></trkpt><trkpt lat="43.35354110041931" lon="10.83966763820662"><ele>160.0</ele><time>2026-04-18T13:56:02.001Z</time></trkpt><trkpt lat="43.35357081636087" lon="10.839763174448944"><ele>160.0</ele><time>2026-04-18T13:56:08.001Z</time></trkpt><trkpt lat="43.35353668748161" lon="10.839852231248134"><ele>160.0</ele><time>2026-04-18T13:56:13.001Z</time></trkpt><trkpt lat="43.35346695745327" lon="10.839883580141153"><ele>160.0</ele><time>2026-04-18T13:56:18.001Z</time></trkpt><trkpt lat="43.35339345304387" lon="10.839894293777398"><ele>160.0</ele><time>2026-04-18T13:56:23.001Z</time></trkpt><trkpt lat="43.35332036714461" lon="10.839915678160214"><ele>160.0</ele><time>2026-04-18T13:56:28.001Z</time></trkpt><trkpt lat="43.3532546717172" lon="10.839944156842533"><ele>160.0</ele><time>2026-04-18T13:56:34.001Z</time></trkpt><trkpt lat="43.35324787370882" lon="10.840033331196558"><ele>160.0</ele><time>2026-04-18T13:56:41Z</time></trkpt><trkpt lat="43.353238449825426" lon="10.840120854076565"><ele>159.42857142857142</ele><time>2026-04-18T13:56:47Z</time></trkpt><trkpt lat="43.35333937156251" lon="10.840135324264542"><ele>158.85714285714286</ele><time>2026-04-18T13:57:12Z</time></trkpt><trkpt lat="43.353392573832544" lon="10.840190586961118"><ele>158.28571428571428</ele><time>2026-04-18T13:57:42Z</time></trkpt><trkpt lat="43.35344725931434" lon="10.840237585214128"><ele>157.71428571428572</ele><time>2026-04-18T13:57:48Z</time></trkpt><trkpt lat="43.35344612817369" lon="10.840324690615233"><ele>157.14285714285714</ele><time>2026-04-18T13:57:55Z</time></trkpt><trkpt lat="43.35338373586939" lon="10.840378741459086"><ele>156.57142857142858</ele><time>2026-04-18T13:58:04.001Z</time></trkpt><trkpt lat="43.35331942594596" lon="10.8403983349068"><ele>156.0</ele><time>2026-04-18T13:58:14.001Z</time></trkpt><trkpt lat="43.35325262603976" lon="10.84041471887886"><ele>156.0</ele><time>2026-04-18T13:58:24.001Z</time></trkpt><trkpt lat="43.35320547853568" lon="10.840473584623107"><ele>156.0</ele><time>2026-04-18T13:58:30.001Z</time></trkpt><trkpt lat="43.35317639660724" lon="10.840550492382006"><ele>156.0</ele><time>2026-04-18T13:58:40.001Z</time></trkpt><trkpt lat="43.35316583453421" lon="10.840646634924083"><ele>156.0</ele><time>2026-04-18T13:58:48Z</time></trkpt><trkpt lat="43.353149583624266" lon="10.840754706249232"><ele>156.0</ele><time>2026-04-18T13:58:54Z</time></trkpt><trkpt lat="43.3531200351958" lon="10.84084244413833"><ele>156.0</ele><time>2026-04-18T13:59:06Z</time></trkpt><trkpt lat="43.35309296790307" lon="10.840928673883104"><ele>156.0</ele><time>2026-04-18T13:59:12Z</time></trkpt><trkpt lat="43.35308386211823" lon="10.841024356517229"><ele>156.57142857142858</ele><time>2026-04-18T13:59:20Z</time></trkpt><trkpt lat="43.35309294938233" lon="10.84111794670301"><ele>157.14285714285714</ele><time>2026-04-18T13:59:29Z</time></trkpt><trkpt lat="43.353100489766895" lon="10.841205788143586"><ele>157.71428571428572</ele><time>2026-04-18T13:59:37Z</time></trkpt><trkpt lat="43.35309760508599" lon="10.841293879827788"><ele>158.28571428571428</ele><time>2026-04-18T13:59:44.001Z</time></trkpt><trkpt lat="43.353109839981144" lon="10.841385741495703"><ele>158.85714285714286</ele><time>2026-04-18T13:59:52.001Z</time></trkpt><trkpt lat="43.35310692274205" lon="10.841480298967161"><ele>159.42857142857142</ele><time>2026-04-18T13:59:59.001Z</time></trkpt><trkpt lat="43.35311281917229" lon="10.841567355056458"><ele>160.0</ele><time>2026-04-18T14:00:10.001Z</time></trkpt><trkpt lat="43.353113757202095" lon="10.841654812705508"><ele>160.0</ele><time>2026-04-18T14:00:17.001Z</time></trkpt><trkpt lat="43.35312502274569" lon="10.841742722792695"><ele>160.0</ele><time>2026-04-18T14:00:26.001Z</time></trkpt><trkpt lat="43.35311829823485" lon="10.841836570208596"><ele>160.0</ele><time>2026-04-18T14:00:35.001Z</time></trkpt><trkpt lat="43.353097224468115" lon="10.841918991169068"><ele>160.0</ele><time>2026-04-18T14:00:42.001Z</time></trkpt><trkpt lat="43.35310912941933" lon="10.842007073294242"><ele>160.0</ele><time>2026-04-18T14:00:50.001Z</time></trkpt><trkpt lat="43.35315158866137" lon="10.842084242733694"><ele>160.0</ele><time>2026-04-18T14:00:59Z</time></trkpt><trkpt lat="43.35316104412239" lon="10.842170643098319"><ele>160.0</ele><time>2026-04-18T14:01:49.001Z</time></trkpt><trkpt lat="43.35319929366303" lon="10.84225484654898"><ele>160.57142857142856</ele><time>2026-04-18T14:01:55.001Z</time></trkpt><trkpt lat="43.353230510178655" lon="10.84233166485178"><ele>161.14285714285714</ele><time>2026-04-18T14:02:00.001Z</time></trkpt><trkpt lat="43.35323979301577" lon="10.842427172877404"><ele>161.71428571428572</ele><time>2026-04-18T14:02:08.001Z</time></trkpt><trkpt lat="43.35320390457649" lon="10.842501004433316"><ele>162.28571428571428</ele><time>2026-04-18T14:02:16.001Z</time></trkpt><trkpt lat="43.35313865579801" lon="10.842487941735179"><ele>162.85714285714286</ele><time>2026-04-18T14:02:24.001Z</time></trkpt><trkpt lat="43.353091247209974" lon="10.84242767411822"><ele>163.42857142857142</ele><time>2026-04-18T14:02:31.001Z</time></trkpt><trkpt lat="43.35305272783795" lon="10.842344927900909"><ele>164.0</ele><time>2026-04-18T14:02:44.001Z</time></trkpt><trkpt lat="43.353022086515004" lon="10.842269016755612"><ele>161.42857142857142</ele><time>2026-04-18T14:02:51.001Z</time></trkpt><trkpt lat="43.35299580789385" lon="10.842183008417278"><ele>158.85714285714286</ele><time>2026-04-18T14:03:01Z</time></trkpt><trkpt lat="43.35298402555287" lon="10.842094042015264"><ele>156.28571428571428</ele><time>2026-04-18T14:03:07Z</time></trkpt><trkpt lat="43.35296965719178" lon="10.842003412928051"><ele>153.71428571428572</ele><time>2026-04-18T14:03:12Z</time></trkpt><trkpt lat="43.35294160402475" lon="10.841915133676553"><ele>151.14285714285714</ele><time>2026-04-18T14:03:18Z</time></trkpt><trkpt lat="43.352905830572986" lon="10.841832494412083"><ele>148.57142857142856</ele><time>2026-04-18T14:03:25Z</time></trkpt><trkpt lat="43.35291250799926" lon="10.84174527134001"><ele>146.0</ele><time>2026-04-18T14:03:40Z</time></trkpt><trkpt lat="43.352902701612585" lon="10.84165074401599"><ele>146.0</ele><time>2026-04-18T14:03:51Z</time></trkpt><trkpt lat="43.35290860649772" lon="10.841550271433796"><ele>146.0</ele><time>2026-04-18T14:04:00.001Z</time></trkpt><trkpt lat="43.35291496508219" lon="10.841450752550589"><ele>146.0</ele><time>2026-04-18T14:04:09.001Z</time></trkpt><trkpt lat="43.352945266924046" lon="10.841368702006891"><ele>146.0</ele><time>2026-04-18T14:04:17.001Z</time></trkpt><trkpt lat="43.35297631372786" lon="10.841291384463002"><ele>146.0</ele><time>2026-04-18T14:04:24.001Z</time></trkpt><trkpt lat="43.35300123830744" lon="10.841199362796315"><ele>146.0</ele><time>2026-04-18T14:04:31.001Z</time></trkpt><trkpt lat="43.353021893429165" lon="10.84108858046018"><ele>146.0</ele><time>2026-04-18T14:04:46.001Z</time></trkpt><trkpt lat="43.35297655191798" lon="10.841026348244768"><ele>146.0</ele><time>2026-04-18T14:04:52.001Z</time></trkpt><trkpt lat="43.35291428363781" lon="10.840986390342568"><ele>146.0</ele><time>2026-04-18T14:05:02.001Z</time></trkpt><trkpt lat="43.352850548302385" lon="10.840989185633072"><ele>146.0</ele><time>2026-04-18T14:05:10Z</time></trkpt><trkpt lat="43.352797508494525" lon="10.84104913499716"><ele>146.0</ele><time>2026-04-18T14:05:20Z</time></trkpt><trkpt lat="43.35272717289287" lon="10.841015782679555"><ele>146.0</ele><time>2026-04-18T14:05:31Z</time></trkpt><trkpt lat="43.352663901057575" lon="10.840971173080163"><ele>146.0</ele><time>2026-04-18T14:05:38Z</time></trkpt><trkpt lat="43.352641029839276" lon="10.84088375896374"><ele>146.0</ele><time>2026-04-18T14:05:43Z</time></trkpt><trkpt lat="43.352651140109536" lon="10.840789635143393"><ele>145.71428571428572</ele><time>2026-04-18T14:05:53Z</time></trkpt><trkpt lat="43.35264002675819" lon="10.840703375291884"><ele>145.42857142857144</ele><time>2026-04-18T14:06:02.001Z</time></trkpt><trkpt lat="43.35264281968426" lon="10.84061540860852"><ele>145.14285714285717</ele><time>2026-04-18T14:06:19.001Z</time></trkpt><trkpt lat="43.352630023465785" lon="10.840515820553106"><ele>144.85714285714286</ele><time>2026-04-18T14:06:53.001Z</time></trkpt><trkpt lat="43.35262612467606" lon="10.8404137174995"><ele>144.57142857142858</ele><time>2026-04-18T14:07:26Z</time></trkpt><trkpt lat="43.35256118526835" lon="10.840366237817216"><ele>144.2857142857143</ele><time>2026-04-18T14:07:36Z</time></trkpt><trkpt lat="43.35251209059771" lon="10.840307302160051"><ele>144.0</ele><time>2026-04-18T14:07:41Z</time></trkpt><trkpt lat="43.352476933306754" lon="10.84022621029854"><ele>144.00000000000003</ele><time>2026-04-18T14:07:47Z</time></trkpt><trkpt lat="43.35244022878636" lon="10.840141324932477"><ele>144.0</ele><time>2026-04-18T14:07:54Z</time></trkpt><trkpt lat="43.35238727202516" lon="10.840086974045313"><ele>144.0</ele><time>2026-04-18T14:08:08Z</time></trkpt><trkpt lat="43.3523232091642" lon="10.84008525826887"><ele>144.0</ele><time>2026-04-18T14:08:16.001Z</time></trkpt><trkpt lat="43.352259500371915" lon="10.840096355665017"><ele>144.0</ele><time>2026-04-18T14:08:24.001Z</time></trkpt><trkpt lat="43.35219232956644" lon="10.840103522537426"><ele>144.00000000000003</ele><time>2026-04-18T14:08:31.001Z</time></trkpt><trkpt lat="43.35213324579935" lon="10.840144230610338"><ele>144.0</ele><time>2026-04-18T14:08:38.001Z</time></trkpt><trkpt lat="43.35206292897832" lon="10.840175344575297"><ele>143.00000000000003</ele><time>2026-04-18T14:08:45.001Z</time></trkpt><trkpt lat="43.35201754549857" lon="10.840098875143916"><ele>142.0</ele><time>2026-04-18T14:08:53.001Z</time></trkpt><trkpt lat="43.351973325756745" lon="10.84003441277376"><ele>141.0</ele><time>2026-04-18T14:08:59.001Z</time></trkpt><trkpt lat="43.35192802095141" lon="10.839963651264185"><ele>140.0</ele><time>2026-04-18T14:09:08.001Z</time></trkpt><trkpt lat="43.35188297316563" lon="10.839902031406139"><ele>139.0</ele><time>2026-04-18T14:09:14.001Z</time></trkpt><trkpt lat="43.351856569631195" lon="10.839814619980393"><ele>138.00000000000003</ele><time>2026-04-18T14:09:19.999Z</time></trkpt><trkpt lat="43.351921385367326" lon="10.839742872708921"><ele>137.0</ele><time>2026-04-18T14:09:27.999Z</time></trkpt><trkpt lat="43.35198553257159" lon="10.839731874086775"><ele>137.00000000000003</ele><time>2026-04-18T14:09:38Z</time></trkpt><trkpt lat="43.35206213653704" lon="10.83970959318749"><ele>137.0</ele><time>2026-04-18T14:09:47Z</time></trkpt><trkpt lat="43.35212906739905" lon="10.839688185473719"><ele>137.0</ele><time>2026-04-18T14:10:11Z</time></trkpt><trkpt lat="43.35217712823787" lon="10.839764435108133"><ele>137.0</ele><time>2026-04-18T14:10:53.001Z</time></trkpt><trkpt lat="43.35224821177271" lon="10.8397980981964"><ele>137.0</ele><time>2026-04-18T14:10:59.001Z</time></trkpt><trkpt lat="43.35232452603796" lon="10.839849005015195"><ele>137.00000000000003</ele><time>2026-04-18T14:11:09.001Z</time></trkpt><trkpt lat="43.35238392597342" lon="10.839812695842253"><ele>137.0</ele><time>2026-04-18T14:11:25Z</time></trkpt><trkpt lat="43.352453649717475" lon="10.839762602214218"><ele>138.57142857142858</ele><time>2026-04-18T14:11:32Z</time></trkpt><trkpt lat="43.352522062320276" lon="10.83974195921304"><ele>140.14285714285714</ele><time>2026-04-18T14:12:01Z</time></trkpt><trkpt lat="43.35258230467887" lon="10.839774741255887"><ele>141.71428571428572</ele><time>2026-04-18T14:12:15Z</time></trkpt><trkpt lat="43.352654281707224" lon="10.839782683466332"><ele>143.28571428571428</ele><time>2026-04-18T14:12:22Z</time></trkpt><trkpt lat="43.35271432998089" lon="10.839734311195091"><ele>144.85714285714286</ele><time>2026-04-18T14:12:35.001Z</time></trkpt><trkpt lat="43.35277944064972" lon="10.839714966208287"><ele>146.42857142857144</ele><time>2026-04-18T14:12:48.001Z</time></trkpt><trkpt lat="43.352835694670155" lon="10.83965879389356"><ele>148.0</ele><time>2026-04-18T14:13:09.001Z</time></trkpt><trkpt lat="43.35289022727826" lon="10.839615482628796"><ele>148.0</ele><time>2026-04-18T14:13:15.001Z</time></trkpt><trkpt lat="43.352944040169554" lon="10.839565531020934"><ele>148.0</ele><time>2026-04-18T14:13:25.001Z</time></trkpt><trkpt lat="43.352969889286214" lon="10.839470553059463"><ele>148.0</ele><time>2026-04-18T14:13:32Z</time></trkpt><trkpt lat="43.35299467794383" lon="10.839380560325909"><ele>148.0</ele><time>2026-04-18T14:13:41Z</time></trkpt><trkpt lat="43.35300163833401" lon="10.839273163792905"><ele>148.0</ele><time>2026-04-18T14:13:50Z</time></trkpt><trkpt lat="43.35297799824323" lon="10.83918360743087"><ele>148.0</ele><time>2026-04-18T14:13:55Z</time></trkpt><trkpt lat="43.35299568472649" lon="10.839098294785222"><ele>148.0</ele><time>2026-04-18T14:13:59Z</time></trkpt><trkpt lat="43.352991749050446" lon="10.839005530448997"><ele>148.14285714285714</ele><time>2026-04-18T14:14:07Z</time></trkpt><trkpt lat="43.35296196505847" lon="10.838924670286758"><ele>148.28571428571428</ele><time>2026-04-18T14:14:11Z</time></trkpt><trkpt lat="43.35289530895558" lon="10.838923882401561"><ele>148.42857142857142</ele><time>2026-04-18T14:14:17.001Z</time></trkpt><trkpt lat="43.35284630765222" lon="10.838995215663262"><ele>148.57142857142856</ele><time>2026-04-18T14:14:22.001Z</time></trkpt><trkpt lat="43.35278299562812" lon="10.839040548853896"><ele>148.7142857142857</ele><time>2026-04-18T14:14:27.001Z</time></trkpt><trkpt lat="43.35274482650358" lon="10.83911297061355"><ele>148.85714285714286</ele><time>2026-04-18T14:14:32.001Z</time></trkpt><trkpt lat="43.35270950582376" lon="10.839191799974476"><ele>149.0</ele><time>2026-04-18T14:14:37.001Z</time></trkpt><trkpt lat="43.35267372325427" lon="10.839272132305673"><ele>148.85714285714286</ele><time>2026-04-18T14:14:42.001Z</time></trkpt><trkpt lat="43.352624211689054" lon="10.839341778399488"><ele>148.7142857142857</ele><time>2026-04-18T14:14:47.001Z</time></trkpt><trkpt lat="43.35257455059069" lon="10.839407777579572"><ele>148.57142857142856</ele><time>2026-04-18T14:14:53.001Z</time></trkpt><trkpt lat="43.352535161943834" lon="10.839492273986185"><ele>148.42857142857142</ele><time>2026-04-18T14:14:59.001Z</time></trkpt><trkpt lat="43.352495146944285" lon="10.839578067651473"><ele>148.28571428571428</ele><time>2026-04-18T14:15:06.001Z</time></trkpt><trkpt lat="43.352446007879976" lon="10.839633158817074"><ele>148.14285714285714</ele><time>2026-04-18T14:15:12.001Z</time></trkpt><trkpt lat="43.35238625045957" lon="10.839559556642687"><ele>148.0</ele><time>2026-04-18T14:15:42Z</time></trkpt><trkpt lat="43.352330750586766" lon="10.839474192093771"><ele>148.0</ele><time>2026-04-18T14:15:47Z</time></trkpt><trkpt lat="43.352253468876334" lon="10.83947034184386"><ele>148.0</ele><time>2026-04-18T14:15:54Z</time></trkpt><trkpt lat="43.35219341047397" lon="10.839504995602267"><ele>148.0</ele><time>2026-04-18T14:16:02Z</time></trkpt><trkpt lat="43.35212362142084" lon="10.839543131980559"><ele>148.0</ele><time>2026-04-18T14:16:09Z</time></trkpt><trkpt lat="43.35205642938839" lon="10.839572822547604"><ele>148.0</ele><time>2026-04-18T14:16:16.001Z</time></trkpt><trkpt lat="43.352014262085476" lon="10.839638634285633"><ele>148.0</ele><time>2026-04-18T14:16:27.001Z</time></trkpt><trkpt lat="43.3519667076366" lon="10.839567630908993"><ele>148.0</ele><time>2026-04-18T14:16:38.001Z</time></trkpt><trkpt lat="43.351919738269416" lon="10.839492861576723"><ele>146.42857142857144</ele><time>2026-04-18T14:16:47.001Z</time></trkpt><trkpt lat="43.35191288465179" lon="10.839401962975703"><ele>144.85714285714286</ele><time>2026-04-18T14:16:56.001Z</time></trkpt><trkpt lat="43.3518851630203" lon="10.839318789058465"><ele>143.28571428571428</ele><time>2026-04-18T14:17:06.001Z</time></trkpt><trkpt lat="43.351848335627466" lon="10.839243912782885"><ele>141.71428571428572</ele><time>2026-04-18T14:17:14.001Z</time></trkpt><trkpt lat="43.351850176324184" lon="10.839130342060937"><ele>140.14285714285714</ele><time>2026-04-18T14:17:28.001Z</time></trkpt><trkpt lat="43.35189120977415" lon="10.839041403410407"><ele>138.57142857142858</ele><time>2026-04-18T14:17:35.002Z</time></trkpt><trkpt lat="43.3519523866759" lon="10.838995976329738"><ele>137.0</ele><time>2026-04-18T14:17:45Z</time></trkpt><trkpt lat="43.35202385474546" lon="10.838933877673472"><ele>136.85714285714286</ele><time>2026-04-18T14:18:03Z</time></trkpt><trkpt lat="43.3521044686657" lon="10.838937624318111"><ele>136.71428571428572</ele><time>2026-04-18T14:18:24Z</time></trkpt><trkpt lat="43.35216405735379" lon="10.838988233774318"><ele>136.57142857142856</ele><time>2026-04-18T14:18:37.001Z</time></trkpt><trkpt lat="43.35222608524162" lon="10.839021971406094"><ele>136.42857142857144</ele><time>2026-04-18T14:19:03.001Z</time></trkpt><trkpt lat="43.35231192594653" lon="10.839068448820742"><ele>136.28571428571428</ele><time>2026-04-18T14:19:08.001Z</time></trkpt><trkpt lat="43.35236291395465" lon="10.839131381119483"><ele>136.14285714285714</ele><time>2026-04-18T14:19:14.001Z</time></trkpt><trkpt lat="43.35242570739438" lon="10.839161592552678"><ele>136.0</ele><time>2026-04-18T14:19:20.001Z</time></trkpt><trkpt lat="43.352497593677946" lon="10.839184110877268"><ele>137.85714285714283</ele><time>2026-04-18T14:19:49Z</time></trkpt><trkpt lat="43.352555449975405" lon="10.839145408131987"><ele>139.71428571428572</ele><time>2026-04-18T14:19:58Z</time></trkpt><trkpt lat="43.35260915709411" lon="10.839094446408025"><ele>141.57142857142856</ele><time>2026-04-18T14:20:08Z</time></trkpt><trkpt lat="43.35264480993214" lon="10.839013981985188"><ele>143.42857142857142</ele><time>2026-04-18T14:20:46.001Z</time></trkpt><trkpt lat="43.352685494313356" lon="10.838940731980099"><ele>145.28571428571428</ele><time>2026-04-18T14:20:56.001Z</time></trkpt><trkpt lat="43.35275220998397" lon="10.838899737263704"><ele>147.14285714285714</ele><time>2026-04-18T14:21:03.001Z</time></trkpt><trkpt lat="43.352803946863844" lon="10.83884343772669"><ele>149.0</ele><time>2026-04-18T14:21:10.001Z</time></trkpt><trkpt lat="43.35286807311476" lon="10.838817916245054"><ele>149.0</ele><time>2026-04-18T14:21:18.001Z</time></trkpt><trkpt lat="43.3529160549009" lon="10.838757196691134"><ele>149.0</ele><time>2026-04-18T14:21:28.001Z</time></trkpt><trkpt lat="43.35298190597904" lon="10.838759518618732"><ele>149.0</ele><time>2026-04-18T14:21:34.001Z</time></trkpt><trkpt lat="43.35304882270262" lon="10.838771485146205"><ele>149.0</ele><time>2026-04-18T14:21:42.001Z</time></trkpt><trkpt lat="43.35310834893755" lon="10.838738740345537"><ele>149.0</ele><time>2026-04-18T14:21:55Z</time></trkpt><trkpt lat="43.35314475700145" lon="10.838823008769792"><ele>149.0</ele><time>2026-04-18T14:22:02Z</time></trkpt><trkpt lat="43.3531958854592" lon="10.838897711615953"><ele>149.0</ele><time>2026-04-18T14:22:09Z</time></trkpt><trkpt lat="43.35326075796155" lon="10.838857086276267"><ele>150.71428571428572</ele><time>2026-04-18T14:22:16Z</time></trkpt><trkpt lat="43.35330812834156" lon="10.838774526995497"><ele>152.42857142857142</ele><time>2026-04-18T14:22:22Z</time></trkpt><trkpt lat="43.353357251225255" lon="10.838717518605906"><ele>154.14285714285714</ele><time>2026-04-18T14:22:28Z</time></trkpt><trkpt lat="43.353410066870346" lon="10.838667867816254"><ele>155.85714285714286</ele><time>2026-04-18T14:22:32Z</time></trkpt><trkpt lat="43.35344746085841" lon="10.838597926892161"><ele>157.57142857142856</ele><time>2026-04-18T14:22:37Z</time></trkpt><trkpt lat="43.35346916752809" lon="10.83849102439353"><ele>159.28571428571428</ele><time>2026-04-18T14:22:43Z</time></trkpt><trkpt lat="43.35348065993308" lon="10.838405492551827"><ele>161.0</ele><time>2026-04-18T14:22:57.001Z</time></trkpt><trkpt lat="43.35351102424436" lon="10.838328713441639"><ele>161.0</ele><time>2026-04-18T14:23:03.001Z</time></trkpt><trkpt lat="43.35357479613171" lon="10.83831083864108"><ele>161.0</ele><time>2026-04-18T14:23:09.001Z</time></trkpt><trkpt lat="43.35362350194512" lon="10.83837221254546"><ele>161.0</ele><time>2026-04-18T14:23:15.001Z</time></trkpt></trkseg></trk></gpx>